Time;durP1;ratioP1;P1;durP2;ratioP2;P2;SDS_P1;SDS_P2;PMS_P1;PMS_P2;Temp;Humidity;BMP_temperature;BMP_pressure;BME280_temperature;BME280_humidity;BME280_pressure;Samples;Min_cycle;Max_cycle;Signal;HPM_P1;HPM_P2
2023/05/21 00:01:07;;;;;;;14.77;8.13;;;;;;;16.23;100.00;100494.09;5533141;32;33675;-68
2023/05/21 00:04:14;;;;;;;12.85;8.55;;;;;;;16.32;100.00;100484.84;5533163;32;33794;-68
2023/05/21 00:07:20;;;;;;;11.40;8.77;;;;;;;16.49;100.00;100496.00;5533079;32;33666;-68
2023/05/21 00:10:28;;;;;;;12.07;8.50;;;;;;;16.64;100.00;100493.19;5532895;32;34187;-69
2023/05/21 00:13:37;;;;;;;12.35;8.65;;;;;;;16.68;100.00;100500.63;5530921;32;33510;-68
2023/05/21 00:16:45;;;;;;;14.77;8.07;;;;;;;16.60;100.00;100508.03;5529482;32;33476;-68
2023/05/21 00:19:53;;;;;;;18.77;7.87;;;;;;;16.57;100.00;100501.16;5532972;32;34151;-68
2023/05/21 00:23:01;;;;;;;12.13;7.87;;;;;;;16.54;100.00;100509.62;5548859;32;33868;-68
2023/05/21 00:26:06;;;;;;;14.87;7.70;;;;;;;16.44;100.00;100504.66;5548811;32;34367;-68
2023/05/21 00:29:14;;;;;;;16.35;8.10;;;;;;;16.44;100.00;100504.66;5548618;32;33839;-68
2023/05/21 00:32:19;;;;;;;13.88;7.85;;;;;;;16.76;100.00;100499.56;5548712;32;33789;-68
2023/05/21 00:35:24;;;;;;;12.95;7.62;;;;;;;16.76;100.00;100505.75;5548630;32;34433;-68
2023/05/21 00:38:31;;;;;;;10.52;7.60;;;;;;;16.81;100.00;100503.28;5548710;32;34541;-68
2023/05/21 00:41:41;;;;;;;11.60;7.60;;;;;;;16.73;100.00;100506.19;5548791;32;33830;-68
2023/05/21 00:44:50;;;;;;;12.32;7.37;;;;;;;16.54;100.00;100501.59;5548580;32;34358;-68
2023/05/21 00:47:57;;;;;;;11.85;7.28;;;;;;;16.60;100.00;100505.34;5548648;32;33825;-68
2023/05/21 00:51:04;;;;;;;8.40;6.62;;;;;;;16.39;100.00;100499.09;5548600;32;33832;-68
2023/05/21 00:54:11;;;;;;;11.40;7.43;;;;;;;16.27;100.00;100481.94;5548224;32;34476;-69
2023/05/21 00:57:21;;;;;;;11.45;7.57;;;;;;;16.19;100.00;100486.66;5548454;32;33902;-68
2023/05/21 01:00:27;;;;;;;9.30;7.12;;;;;;;16.06;100.00;100498.16;5548553;32;33772;-68
2023/05/21 01:03:37;;;;;;;15.10;8.43;;;;;;;15.94;100.00;100499.75;5548139;32;34530;-67
2023/05/21 01:06:43;;;;;;;12.63;8.20;;;;;;;15.79;100.00;100494.53;5548382;32;34026;-68
2023/05/21 01:09:50;;;;;;;14.68;8.73;;;;;;;15.78;100.00;100500.09;5548360;32;33673;-68
2023/05/21 01:12:58;;;;;;;9.93;7.62;;;;;;;15.70;100.00;100497.59;5548159;32;34608;-68
2023/05/21 01:16:05;;;;;;;14.77;8.82;;;;;;;15.66;100.00;100491.81;5548210;32;34416;-68
2023/05/21 01:19:19;;;;;;;13.80;7.65;;;;;;;15.59;100.00;100490.94;5548281;32;33655;-68
2023/05/21 01:22:27;;;;;;;13.13;8.05;;;;;;;15.64;100.00;100493.84;5547524;32;33849;-68
2023/05/21 01:25:35;;;;;;;11.95;7.50;;;;;;;15.82;100.00;100488.81;5547973;32;33767;-68
2023/05/21 01:28:43;;;;;;;15.68;8.10;;;;;;;15.84;100.00;100485.91;5548277;32;33577;-67
2023/05/21 01:31:55;;;;;;;13.68;7.93;;;;;;;15.77;100.00;100480.56;5548499;32;33717;-68
2023/05/21 01:35:10;;;;;;;11.35;7.03;;;;;;;15.71;100.00;100484.03;5548253;32;34276;-68
2023/05/21 01:38:26;;;;;;;19.23;8.10;;;;;;;15.55;100.00;100490.50;5547397;32;33719;-68
2023/05/21 01:41:37;;;;;;;13.15;7.47;;;;;;;15.51;100.00;100481.25;5548138;32;33728;-68
2023/05/21 01:44:47;;;;;;;12.02;7.78;;;;;;;15.51;100.00;100488.44;5548034;32;34196;-68
2023/05/21 01:47:55;;;;;;;12.90;8.18;;;;;;;15.47;100.00;100487.97;5548162;32;33672;-68
2023/05/21 01:51:04;;;;;;;14.57;7.93;;;;;;;15.39;100.00;100487.31;5548086;32;33608;-68
2023/05/21 01:54:13;;;;;;;12.57;8.07;;;;;;;15.22;100.00;100490.28;5547821;32;34618;-68
2023/05/21 01:57:20;;;;;;;10.75;8.10;;;;;;;15.14;100.00;100490.44;5548040;32;34294;-68
2023/05/21 02:00:28;;;;;;;17.75;7.82;;;;;;;15.12;100.00;100488.97;5547873;32;34732;-68
2023/05/21 02:03:34;;;;;;;10.18;7.65;;;;;;;15.13;100.00;100490.63;5548274;32;33927;-68
2023/05/21 02:06:43;;;;;;;10.85;7.80;;;;;;;15.15;100.00;100489.41;5548162;32;33713;-68
2023/05/21 02:09:52;;;;;;;14.13;8.27;;;;;;;15.09;100.00;100492.88;5547687;32;33898;-68
2023/05/21 02:12:59;;;;;;;11.38;7.97;;;;;;;15.07;100.00;100480.69;5540467;32;34012;-68
2023/05/21 02:16:10;;;;;;;12.37;7.53;;;;;;;15.08;100.00;100485.88;5540192;32;34821;-68
2023/05/21 02:19:17;;;;;;;13.62;8.05;;;;;;;15.16;100.00;100479.53;5547747;32;33577;-68
2023/05/21 02:22:25;;;;;;;12.65;8.00;;;;;;;14.94;100.00;100480.63;5547807;32;33714;-68
2023/05/21 02:25:30;;;;;;;12.52;8.13;;;;;;;14.84;100.00;100483.63;5547732;32;33787;-68
2023/05/21 02:28:44;;;;;;;11.45;8.27;;;;;;;14.75;100.00;100477.59;5547594;32;33662;-68
2023/05/21 02:31:51;;;;;;;11.55;8.20;;;;;;;14.66;100.00;100476.06;5547613;32;33822;-68
2023/05/21 02:34:57;;;;;;;11.43;7.55;;;;;;;14.63;100.00;100488.97;5547684;32;33774;-68
2023/05/21 02:38:04;;;;;;;14.80;7.87;;;;;;;14.55;100.00;100481.91;5546449;32;33943;-68
2023/05/21 02:41:12;;;;;;;11.65;8.25;;;;;;;14.52;100.00;100479.66;5547389;32;33572;-68
2023/05/21 02:44:19;;;;;;;14.38;8.73;;;;;;;14.49;100.00;100474.66;5547570;32;33578;-68
2023/05/21 02:47:28;;;;;;;14.63;8.25;;;;;;;14.42;100.00;100472.97;5547243;32;33970;-67
2023/05/21 02:50:38;;;;;;;11.20;8.65;;;;;;;14.45;100.00;100475.25;5547389;32;33796;-68
2023/05/21 02:53:47;;;;;;;12.30;8.45;;;;;;;14.37;100.00;100481.53;5547353;32;33798;-68
2023/05/21 02:56:54;;;;;;;12.63;8.68;;;;;;;14.31;100.00;100477.75;5547102;32;33933;-67
2023/05/21 03:00:02;;;;;;;11.93;8.30;;;;;;;14.61;100.00;100477.66;5546768;32;34791;-68
2023/05/21 03:03:11;;;;;;;15.25;8.57;;;;;;;14.74;100.00;100481.28;5547144;32;33794;-69
2023/05/21 03:06:19;;;;;;;13.55;8.60;;;;;;;14.75;100.00;100474.91;5546228;32;34444;-68
2023/05/21 03:09:27;;;;;;;13.85;8.68;;;;;;;14.80;100.00;100482.34;5547136;32;34987;-68
2023/05/21 03:12:35;;;;;;;13.43;8.73;;;;;;;14.74;100.00;100473.25;5547103;32;33625;-68
2023/05/21 03:15:42;;;;;;;17.65;8.75;;;;;;;14.68;100.00;100473.19;5547012;32;35139;-68
2023/05/21 03:18:51;;;;;;;12.48;8.57;;;;;;;14.60;100.00;100473.34;5545318;32;33737;-68
2023/05/21 03:21:58;;;;;;;11.38;8.30;;;;;;;14.65;100.00;100468.25;5547428;32;35110;-68
2023/05/21 03:25:08;;;;;;;14.90;8.70;;;;;;;14.67;100.00;100468.88;5546700;32;33848;-68
2023/05/21 03:28:17;;;;;;;11.85;8.23;;;;;;;14.71;100.00;100464.81;5547019;32;33890;-68
2023/05/21 03:31:26;;;;;;;14.98;8.20;;;;;;;14.65;100.00;100478.94;5546252;32;34566;-68
2023/05/21 03:34:34;;;;;;;12.30;8.43;;;;;;;14.81;100.00;100472.50;5546584;32;34038;-68
2023/05/21 03:37:41;;;;;;;13.43;9.25;;;;;;;14.84;100.00;100472.09;5546560;32;33694;-68
2023/05/21 03:40:48;;;;;;;13.93;8.18;;;;;;;14.93;100.00;100478.94;5546503;32;33780;-68
2023/05/21 03:43:57;;;;;;;13.77;8.68;;;;;;;15.12;100.00;100487.13;5546410;32;33936;-68
2023/05/21 03:47:02;;;;;;;18.75;9.45;;;;;;;15.23;100.00;100486.59;5546470;32;33970;-68
2023/05/21 03:50:11;;;;;;;12.40;8.63;;;;;;;15.38;100.00;100488.31;5548988;32;33810;-68
2023/05/21 03:53:17;;;;;;;13.43;9.02;;;;;;;15.47;100.00;100487.97;5548933;32;33636;-68
2023/05/21 03:56:25;;;;;;;13.77;9.05;;;;;;;15.60;100.00;100490.75;5548870;32;34552;-68
2023/05/21 03:59:32;;;;;;;13.32;8.93;;;;;;;15.66;100.00;100494.47;5548950;32;33832;-68
2023/05/21 04:02:41;;;;;;;15.38;9.13;;;;;;;15.74;100.00;100480.94;5548953;32;33936;-68
2023/05/21 04:05:50;;;;;;;13.48;8.88;;;;;;;15.83;100.00;100489.62;5549372;32;33577;-68
2023/05/21 04:08:56;;;;;;;15.90;8.38;;;;;;;15.87;100.00;100489.03;5548382;32;34052;-68
2023/05/21 04:12:03;;;;;;;13.30;8.05;;;;;;;15.89;100.00;100497.69;5548903;32;33604;-68
2023/05/21 04:15:11;;;;;;;12.32;8.45;;;;;;;15.99;100.00;100500.81;5548836;32;34526;-68
2023/05/21 04:18:19;;;;;;;12.32;8.30;;;;;;;16.16;100.00;100497.78;5547967;32;33925;-68
2023/05/21 04:21:25;;;;;;;14.07;8.43;;;;;;;16.29;100.00;100492.47;5548632;32;35142;-68
2023/05/21 04:24:33;;;;;;;11.98;8.02;;;;;;;16.34;100.00;100498.88;5548869;32;34606;-69
2023/05/21 04:27:46;;;;;;;15.27;8.02;;;;;;;16.43;100.00;100497.66;5548672;32;33891;-68
2023/05/21 04:30:55;;;;;;;14.82;8.35;;;;;;;16.51;100.00;100496.62;5548736;32;34483;-68
2023/05/21 04:34:03;;;;;;;13.05;7.90;;;;;;;16.44;100.00;100501.97;5548892;32;33900;-68
2023/05/21 04:37:12;;;;;;;14.30;7.35;;;;;;;16.42;100.00;100501.34;5548647;32;33774;-68
2023/05/21 04:40:23;;;;;;;13.88;7.30;;;;;;;16.47;100.00;100498.88;5548593;32;33662;-68
2023/05/21 04:43:33;;;;;;;11.05;7.30;;;;;;;16.52;100.00;100509.81;5548680;32;34115;-68
2023/05/21 04:46:41;;;;;;;11.88;7.82;;;;;;;16.45;100.00;100503.62;5547822;32;33736;-68
2023/05/21 04:49:49;;;;;;;11.27;7.35;;;;;;;16.48;100.00;100497.03;5548612;32;33795;-68
2023/05/21 04:52:57;;;;;;;13.77;7.18;;;;;;;16.56;100.00;100496.84;5548434;32;35135;-68
2023/05/21 04:56:06;;;;;;;17.50;7.30;;;;;;;16.63;100.00;100495.03;5548426;32;33747;-68
2023/05/21 04:59:13;;;;;;;10.77;7.07;;;;;;;16.87;100.00;100483.72;5548057;32;33867;-68
2023/05/21 05:02:20;;;;;;;9.27;6.05;;;;;;;17.02;100.00;100485.38;5548389;32;33737;-68
2023/05/21 05:05:26;;;;;;;11.05;6.70;;;;;;;17.06;100.00;100490.09;5548503;32;33732;-68
2023/05/21 05:08:34;;;;;;;10.85;6.68;;;;;;;17.20;100.00;100486.38;5548662;32;33799;-67
2023/05/21 05:11:39;;;;;;;11.57;6.18;;;;;;;17.35;100.00;100480.78;5548695;32;35291;-67
2023/05/21 05:14:46;;;;;;;7.32;5.85;;;;;;;17.60;100.00;100486.34;5548355;32;34488;-68
2023/05/21 05:17:53;;;;;;;8.50;5.40;;;;;;;17.68;100.00;100486.91;5548348;32;33792;-68
2023/05/21 05:21:01;;;;;;;7.50;4.87;;;;;;;17.94;100.00;100487.87;5548183;32;33618;-68
2023/05/21 05:24:08;;;;;;;6.87;4.20;;;;;;;18.29;100.00;100485.63;5548097;32;33989;-69
2023/05/21 05:27:16;;;;;;;6.45;4.78;;;;;;;18.49;100.00;100479.09;5547986;32;34158;-68
2023/05/21 05:30:22;;;;;;;8.02;4.53;;;;;;;18.72;99.97;100491.16;5548195;32;34136;-68
2023/05/21 05:33:31;;;;;;;10.02;4.43;;;;;;;18.92;96.07;100478.41;5548225;32;33942;-68
2023/05/21 05:36:38;;;;;;;7.07;4.22;;;;;;;19.05;94.30;100486.34;5548152;32;33900;-68
2023/05/21 05:39:46;;;;;;;5.47;4.30;;;;;;;19.21;92.88;100487.66;5548157;32;33560;-67
2023/05/21 05:42:53;;;;;;;10.40;4.20;;;;;;;19.31;89.20;100482.59;5547205;32;33780;-70
2023/05/21 05:45:59;;;;;;;9.02;4.37;;;;;;;19.43;91.24;100488.88;5548098;32;33816;-69
2023/05/21 05:49:06;;;;;;;5.87;3.92;;;;;;;19.56;88.53;100493.34;5548167;32;34252;-69
2023/05/21 05:52:13;;;;;;;6.72;4.30;;;;;;;19.65;86.47;100492.00;5547244;32;34707;-68
2023/05/21 05:55:20;;;;;;;8.45;4.10;;;;;;;19.76;86.04;100488.53;5547691;32;34762;-68
2023/05/21 05:58:28;;;;;;;6.65;4.28;;;;;;;19.92;83.86;100483.38;5547945;32;34500;-68
2023/05/21 06:01:38;;;;;;;6.40;4.12;;;;;;;19.94;83.51;100480.47;5546852;32;34039;-68
2023/05/21 06:04:46;;;;;;;10.15;4.70;;;;;;;20.04;82.32;100471.84;5547773;32;33816;-68
2023/05/21 06:07:54;;;;;;;7.95;4.60;;;;;;;20.15;83.73;100474.56;5547890;32;34396;-67
2023/05/21 06:11:05;;;;;;;8.70;4.45;;;;;;;20.27;82.67;100483.53;5546874;32;34036;-69
2023/05/21 06:14:13;;;;;;;10.73;4.28;;;;;;;20.34;81.94;100472.69;5546944;32;33722;-71
2023/05/21 06:17:20;;;;;;;13.10;4.15;;;;;;;20.42;80.10;100466.16;5533596;32;33431;-68
2023/05/21 06:20:26;;;;;;;8.15;4.12;;;;;;;20.53;79.60;100470.75;5528468;32;33920;-69
2023/05/21 06:23:36;;;;;;;5.35;3.72;;;;;;;20.70;79.34;100456.38;5528101;32;33414;-70
2023/05/21 06:26:41;;;;;;;9.00;4.35;;;;;;;20.76;76.35;100468.13;5528278;32;33953;-68
2023/05/21 06:29:49;;;;;;;10.10;4.50;;;;;;;20.76;77.78;100457.34;5532850;32;34309;-68
2023/05/21 06:32:56;;;;;;;5.65;3.80;;;;;;;20.87;76.86;100451.13;5528488;32;33842;-68
2023/05/21 06:36:03;;;;;;;9.82;4.28;;;;;;;21.01;75.89;100444.44;5528071;32;33703;-67
2023/05/21 06:39:10;;;;;;;8.20;4.12;;;;;;;21.11;78.39;100444.69;5528300;32;34719;-69
2023/05/21 06:42:18;;;;;;;7.40;4.10;;;;;;;21.21;75.84;100444.13;5527034;32;34355;-70
2023/05/21 06:45:27;;;;;;;7.47;4.25;;;;;;;21.22;75.77;100443.91;5528140;32;33873;-69
2023/05/21 06:48:35;;;;;;;7.20;4.00;;;;;;;21.41;72.86;100439.16;5537230;32;33826;-68
2023/05/21 06:51:41;;;;;;;7.40;4.12;;;;;;;21.73;73.39;100441.47;5544577;32;33641;-68
2023/05/21 06:54:47;;;;;;;9.63;4.10;;;;;;;21.76;73.18;100443.69;5526665;32;33881;-69
2023/05/21 06:57:53;;;;;;;6.62;3.83;;;;;;;21.92;70.15;100443.75;5529000;32;34026;-68
2023/05/21 07:01:01;;;;;;;7.55;3.78;;;;;;;21.92;67.76;100451.84;5528166;32;34362;-68
2023/05/21 07:04:09;;;;;;;6.45;3.58;;;;;;;21.94;66.52;100438.13;5529944;32;33591;-69
2023/05/21 07:07:15;;;;;;;6.62;3.53;;;;;;;22.28;66.47;100442.56;5527438;32;34161;-69
2023/05/21 07:10:20;;;;;;;5.93;3.72;;;;;;;22.48;66.06;100440.22;5546084;32;34050;-68
2023/05/21 07:13:27;;;;;;;5.45;3.62;;;;;;;22.49;65.66;100444.56;5545978;32;33945;-69
2023/05/21 07:16:36;;;;;;;5.60;3.73;;;;;;;22.85;64.13;100437.88;5547208;32;33655;-69
2023/05/21 07:19:42;;;;;;;6.20;3.78;;;;;;;22.90;64.97;100443.38;5546855;32;33339;-69
2023/05/21 07:22:50;;;;;;;8.75;3.80;;;;;;;23.21;62.98;100433.81;5547051;32;33796;-68
2023/05/21 07:25:57;;;;;;;6.25;3.60;;;;;;;24.33;61.09;100430.59;5549159;32;34049;-68
2023/05/21 07:29:03;;;;;;;6.10;3.67;;;;;;;25.31;57.75;100423.78;5549152;32;33825;-68
2023/05/21 07:32:11;;;;;;;6.62;3.45;;;;;;;25.69;55.40;100422.63;5540496;32;34071;-69
2023/05/21 07:35:16;;;;;;;6.82;3.60;;;;;;;26.08;52.25;100427.63;5537234;32;33912;-69
2023/05/21 07:38:21;;;;;;;5.37;3.47;;;;;;;26.78;50.61;100426.87;5549341;32;33607;-69
2023/05/21 07:41:28;;;;;;;4.97;3.20;;;;;;;26.27;50.31;100431.50;5549132;32;33802;-69
2023/05/21 07:44:35;;;;;;;6.62;3.42;;;;;;;27.07;48.31;100427.97;5548697;32;33724;-69
2023/05/21 07:47:43;;;;;;;6.85;3.47;;;;;;;27.03;47.65;100437.78;5548659;32;34524;-69
2023/05/21 07:50:51;;;;;;;10.63;3.23;;;;;;;26.72;49.55;100428.00;5537491;32;34410;-68
2023/05/21 07:53:59;;;;;;;8.50;3.30;;;;;;;27.95;46.88;100430.94;5544989;32;34957;-71
2023/05/21 07:57:07;;;;;;;9.20;3.03;;;;;;;28.09;44.50;100439.31;5547371;32;33724;-69
2023/05/21 08:00:15;;;;;;;10.75;3.58;;;;;;;27.84;44.47;100437.53;5548793;32;33994;-70
2023/05/21 08:03:25;;;;;;;9.35;3.45;;;;;;;28.26;44.14;100428.06;5548739;32;33811;-69
2023/05/21 08:06:32;;;;;;;10.63;3.08;;;;;;;28.15;43.87;100424.56;5548929;32;33658;-69
2023/05/21 08:09:43;;;;;;;4.07;2.92;;;;;;;28.06;43.93;100434.44;5548747;32;33810;-69
2023/05/21 08:12:51;;;;;;;6.78;2.83;;;;;;;28.88;42.29;100424.56;5548443;32;33797;-70
2023/05/21 08:15:58;;;;;;;3.43;3.03;;;;;;;28.74;41.83;100420.88;5548864;32;33805;-71
2023/05/21 08:19:05;;;;;;;5.45;3.30;;;;;;;28.90;42.05;100420.44;5548715;32;33811;-69
2023/05/21 08:22:12;;;;;;;3.75;2.78;;;;;;;28.16;43.65;100419.94;5548545;32;33593;-70
2023/05/21 08:25:19;;;;;;;7.72;3.17;;;;;;;29.20;41.10;100430.25;5548435;32;34417;-69
2023/05/21 08:28:27;;;;;;;6.57;3.03;;;;;;;29.28;40.75;100421.44;5548176;32;33878;-71
2023/05/21 08:31:32;;;;;;;8.45;3.37;;;;;;;29.54;40.28;100427.44;5546006;32;34059;-70
2023/05/21 08:34:38;;;;;;;4.78;3.08;;;;;;;30.13;39.66;100423.37;5547639;32;33691;-70
2023/05/21 08:37:44;;;;;;;3.30;2.60;;;;;;;30.51;39.59;100426.94;5544521;32;33938;-69
2023/05/21 08:40:51;;;;;;;9.50;3.62;;;;;;;29.88;41.33;100418.22;5543776;32;34361;-71
2023/05/21 08:44:01;;;;;;;10.57;3.40;;;;;;;29.51;41.63;100429.94;5547375;32;33796;-70
2023/05/21 08:47:06;;;;;;;;;;;;;;;30.76;38.81;100431.97;5547321;32;33788;-70
2023/05/21 08:50:15;;;;;;;5.75;2.78;;;;;;;31.07;37.32;100424.06;5548550;32;34255;-69
2023/05/21 08:53:26;;;;;;;4.55;2.87;;;;;;;30.77;37.29;100436.34;5539314;32;34979;-70
2023/05/21 08:56:32;;;;;;;5.35;2.95;;;;;;;30.49;38.03;100429.16;5535775;32;33727;-71
2023/05/21 08:59:42;;;;;;;6.15;2.78;;;;;;;31.14;36.17;100432.69;5547515;32;34593;-70
2023/05/21 09:02:47;;;;;;;6.30;3.10;;;;;;;30.96;37.31;100422.59;5546770;32;34348;-69
2023/05/21 09:05:53;;;;;;;5.82;2.95;;;;;;;31.15;38.09;100428.03;5539823;32;34498;-70
2023/05/21 09:09:09;;;;;;;5.10;2.70;;;;;;;32.08;36.23;100427.47;5548089;32;33858;-70
2023/05/21 09:12:16;;;;;;;4.55;2.80;;;;;;;31.82;36.67;100423.66;5548098;32;33792;-70
2023/05/21 09:15:21;;;;;;;5.28;2.70;;;;;;;33.07;35.06;100421.72;5546472;32;34511;-71
2023/05/21 09:18:26;;;;;;;5.57;2.92;;;;;;;33.00;34.45;100415.88;5546968;32;33708;-70
2023/05/21 09:21:32;;;;;;;7.30;3.00;;;;;;;33.62;33.61;100415.81;5546708;32;34759;-68
2023/05/21 09:24:38;;;;;;;5.45;2.83;;;;;;;33.68;34.12;100414.56;5547295;32;34162;-69
2023/05/21 09:27:43;;;;;;;6.85;2.65;;;;;;;33.16;32.19;100413.56;5547746;32;34019;-68
2023/05/21 09:30:52;;;;;;;6.53;2.80;;;;;;;33.41;32.48;100425.75;5547233;32;33712;-70
2023/05/21 09:33:56;;;;;;;6.47;2.85;;;;;;;33.88;31.27;100416.72;5538924;32;34216;-69
2023/05/21 09:37:02;;;;;;;4.75;2.60;;;;;;;33.26;32.38;100413.25;5546606;32;34698;-70
2023/05/21 09:40:18;;;;;;;4.37;2.92;;;;;;;33.69;31.02;100410.69;5547910;32;33967;-70
2023/05/21 09:43:25;;;;;;;5.18;2.95;;;;;;;34.07;30.84;100408.12;5547862;32;33846;-69
2023/05/21 09:46:40;;;;;;;7.85;3.00;;;;;;;35.50;29.83;100419.50;5547747;32;33690;-69
2023/05/21 09:49:45;;;;;;;7.53;3.20;;;;;;;35.21;29.52;100406.50;5545483;32;33886;-70
2023/05/21 09:52:51;;;;;;;5.62;2.70;;;;;;;34.67;30.61;100410.88;5547855;32;33915;-69
2023/05/21 09:55:57;;;;;;;6.30;3.17;;;;;;;34.14;30.01;100413.94;5548039;32;34456;-71
2023/05/21 09:59:05;;;;;;;5.03;3.00;;;;;;;34.82;30.53;100413.09;5547350;32;33831;-69
2023/05/21 10:02:19;;;;;;;5.05;3.10;;;;;;;34.98;30.49;100409.81;5547323;32;34485;-69
2023/05/21 10:05:27;;;;;;;4.07;2.90;;;;;;;34.68;29.84;100404.22;5547713;32;34028;-70
2023/05/21 10:08:36;;;;;;;6.22;2.90;;;;;;;34.16;30.49;100402.63;5539516;32;33944;-70
2023/05/21 10:11:44;;;;;;;9.75;2.75;;;;;;;33.35;30.96;100388.56;5547867;32;33576;-71
2023/05/21 10:14:57;;;;;;;6.53;3.00;;;;;;;34.46;28.69;100391.44;5547465;32;34487;-69
2023/05/21 10:18:03;;;;;;;6.07;2.70;;;;;;;35.43;28.28;100396.34;5547481;32;33781;-69
2023/05/21 10:21:09;;;;;;;5.30;2.95;;;;;;;35.47;27.90;100400.88;5547802;32;33739;-69
2023/05/21 10:24:16;;;;;;;7.90;2.53;;;;;;;35.29;28.06;100386.34;5547616;32;33439;-69
2023/05/21 10:27:21;;;;;;;4.78;2.67;;;;;;;35.03;28.10;100382.06;5547695;32;33928;-69
2023/05/21 10:30:26;;;;;;;6.87;2.78;;;;;;;35.42;27.08;100387.25;5547510;32;33933;-70
2023/05/21 10:33:32;;;;;;;5.90;2.72;;;;;;;35.36;27.74;100382.25;5547459;32;33920;-69
2023/05/21 10:36:38;;;;;;;4.20;2.55;;;;;;;36.18;26.43;100378.78;5547540;32;33793;-70
2023/05/21 10:39:44;;;;;;;6.03;2.70;;;;;;;36.10;27.54;100374.94;5547799;32;34728;-69
2023/05/21 10:42:50;;;;;;;7.60;2.60;;;;;;;36.63;28.02;100372.53;5547022;32;34508;-70
2023/05/21 10:46:15;;;;;;;3.95;2.35;;;;;;;35.98;27.28;100369.34;5547256;32;33854;-69
2023/05/21 10:50:07;;;;;;;5.75;2.80;;;;;;;36.32;26.30;100375.72;5547248;32;33885;-70
2023/05/21 10:53:24;;;;;;;9.10;2.67;;;;;;;37.33;25.62;100379.63;5544926;32;33932;-69
2023/05/21 10:56:37;;;;;;;9.75;2.72;;;;;;;35.38;27.32;100374.47;5547251;32;33612;-70
2023/05/21 10:59:45;;;;;;;6.60;2.55;;;;;;;32.77;30.26;100354.66;5544900;32;34107;-70
2023/05/21 11:02:51;;;;;;;4.30;2.70;;;;;;;31.20;32.65;100346.50;5547018;32;34598;-70
2023/05/21 11:05:56;;;;;;;3.95;2.80;;;;;;;33.35;31.36;100350.88;5547069;32;33682;-69
2023/05/21 11:09:19;;;;;;;7.20;2.80;;;;;;;33.20;31.82;100356.81;5546858;32;34102;-69
2023/05/21 11:12:25;;;;;;;6.03;2.67;;;;;;;33.23;31.41;100360.84;5547016;32;33694;-70
2023/05/21 11:15:29;;;;;;;12.23;3.10;;;;;;;32.64;31.75;100355.56;5546885;32;33796;-70
2023/05/21 11:18:38;;;;;;;4.45;2.80;;;;;;;34.84;29.27;100352.97;5546902;32;33944;-71
2023/05/21 11:21:48;;;;;;;6.22;2.60;;;;;;;34.28;29.08;100354.03;5546814;32;33904;-71
2023/05/21 11:25:00;;;;;;;3.75;2.55;;;;;;;35.74;27.30;100355.41;5546681;32;33718;-69
2023/05/21 11:28:08;;;;;;;5.07;2.75;;;;;;;37.53;24.56;100364.03;5546703;32;33846;-71
2023/05/21 11:31:25;;;;;;;7.05;3.30;;;;;;;38.90;23.08;100358.13;5545524;32;33808;-70
2023/05/21 11:34:38;;;;;;;3.33;2.50;;;;;;;37.56;24.51;100361.44;5545219;32;34390;-69
2023/05/21 11:37:52;;;;;;;6.22;2.30;;;;;;;39.70;22.44;100363.22;5535834;32;33759;-70
2023/05/21 11:41:02;;;;;;;4.93;2.62;;;;;;;39.18;23.23;100355.22;5531844;32;34904;-71
2023/05/21 11:44:07;;;;;;;5.10;2.90;;;;;;;39.49;22.53;100347.69;5536998;32;33616;-70
2023/05/21 11:47:14;;;;;;;4.10;2.80;;;;;;;36.86;24.88;100346.06;5541859;32;33603;-69
2023/05/21 11:50:18;;;;;;;5.35;2.80;;;;;;;38.52;22.74;100340.09;5536655;32;34227;-69
2023/05/21 11:53:23;;;;;;;5.65;3.00;;;;;;;39.24;23.28;100337.94;5537533;32;34197;-70
2023/05/21 11:56:32;;;;;;;3.10;2.35;;;;;;;40.88;20.64;100350.44;5525570;32;33679;-69
2023/05/21 11:59:36;;;;;;;5.35;2.80;;;;;;;40.29;22.05;100346.19;5536921;32;33840;-69
2023/05/21 12:02:49;;;;;;;4.43;2.83;;;;;;;39.78;22.03;100335.25;5534743;32;34908;-70
2023/05/21 12:06:04;;;;;;;5.75;2.75;;;;;;;37.55;22.92;100323.84;5535437;32;33810;-69
2023/05/21 12:09:09;;;;;;;5.12;2.87;;;;;;;39.24;22.51;100321.28;5526642;32;33613;-69
2023/05/21 12:12:17;;;;;;;12.95;3.20;;;;;;;40.21;21.53;100325.81;5528751;32;33800;-70
2023/05/21 12:15:21;;;;;;;5.68;2.70;;;;;;;38.48;21.44;100319.78;5529088;32;34440;-69
2023/05/21 12:18:25;;;;;;;5.32;2.42;;;;;;;40.80;19.71;100316.97;5529227;32;34873;-70
2023/05/21 12:21:30;;;;;;;5.70;2.97;;;;;;;40.77;19.28;100308.53;5534865;32;33845;-71
2023/05/21 12:24:36;;;;;;;6.22;2.85;;;;;;;40.54;20.07;100316.88;5538534;32;34899;-70
2023/05/21 12:27:40;;;;;;;6.45;3.30;;;;;;;38.01;21.79;100311.34;5528968;32;33682;-70
2023/05/21 12:30:45;;;;;;;5.70;3.17;;;;;;;37.16;23.78;100305.19;5542317;32;33621;-74
2023/05/21 12:33:53;;;;;;;10.48;3.17;;;;;;;39.99;21.55;100306.28;5547733;32;34526;-68
2023/05/21 12:36:58;;;;;;;7.50;3.30;;;;;;;41.74;19.74;100306.00;5546166;32;34222;-71
2023/05/21 12:40:06;;;;;;;11.68;3.10;;;;;;;40.01;21.46;100315.03;5548477;32;35030;-71
2023/05/21 12:43:12;;;;;;;4.28;3.00;;;;;;;41.10;20.04;100303.16;5538420;32;34822;-71
2023/05/21 12:46:18;;;;;;;8.30;2.83;;;;;;;40.89;20.22;100300.00;5536423;32;33717;-71
2023/05/21 12:49:38;;;;;;;4.53;3.00;;;;;;;39.22;21.40;100301.41;5539256;32;33964;-70
2023/05/21 12:52:43;;;;;;;7.10;3.10;;;;;;;36.10;24.36;100292.09;5537576;32;33619;-70
2023/05/21 12:55:49;;;;;;;7.10;3.10;;;;;;;32.92;28.19;100278.44;5538782;32;34848;-71
2023/05/21 12:58:55;;;;;;;7.70;3.37;;;;;;;35.45;24.96;100270.69;5543535;32;33682;-71
2023/05/21 13:02:02;;;;;;;10.10;3.37;;;;;;;37.57;24.44;100281.97;5548080;32;33766;-71
2023/05/21 13:05:18;;;;;;;7.62;3.30;;;;;;;39.04;22.15;100281.59;5547889;32;33588;-70
2023/05/21 13:08:23;;;;;;;3.60;2.80;;;;;;;37.42;23.08;100277.94;5547667;32;33475;-70
2023/05/21 13:11:28;;;;;;;5.87;2.95;;;;;;;36.63;24.81;100276.59;5548264;32;33900;-71
2023/05/21 13:14:34;;;;;;;4.75;2.90;;;;;;;37.48;23.09;100270.97;5548084;32;33783;-70
2023/05/21 13:17:40;;;;;;;7.75;2.87;;;;;;;39.58;20.10;100266.94;5547843;32;34576;-71
2023/05/21 13:20:45;;;;;;;3.80;2.95;;;;;;;39.82;20.35;100263.91;5547470;32;33710;-71
2023/05/21 13:23:50;;;;;;;7.70;3.12;;;;;;;40.23;20.41;100264.31;5547185;32;34293;-71
2023/05/21 13:26:56;;;;;;;6.10;3.05;;;;;;;41.65;19.21;100247.81;5547320;32;33988;-70
2023/05/21 13:30:04;;;;;;;4.95;3.00;;;;;;;41.38;19.19;100244.28;5548245;32;33717;-70
2023/05/21 13:33:13;;;;;;;9.23;3.10;;;;;;;41.38;19.39;100252.62;5547918;32;34652;-71
2023/05/21 13:36:18;;;;;;;3.95;3.00;;;;;;;43.09;17.77;100250.37;5547115;32;35218;-71
2023/05/21 13:39:26;;;;;;;4.30;2.95;;;;;;;42.89;17.21;100247.06;5547699;32;34490;-70
2023/05/21 13:42:31;;;;;;;6.03;3.45;;;;;;;44.68;16.13;100247.28;5547494;32;33824;-70
2023/05/21 13:45:37;;;;;;;9.23;3.00;;;;;;;44.83;16.51;100245.25;5547174;32;34179;-69
2023/05/21 13:48:42;;;;;;;6.35;2.80;;;;;;;42.20;18.74;100232.09;5547803;32;33739;-70
2023/05/21 13:51:45;;;;;;;6.15;3.00;;;;;;;41.18;19.86;100229.69;5548020;32;33886;-71
2023/05/21 13:54:48;;;;;;;7.10;3.30;;;;;;;40.17;19.76;100226.84;5547659;32;33577;-70
2023/05/21 13:57:52;;;;;;;7.07;2.95;;;;;;;36.84;22.90;100215.66;5547637;32;34222;-71
2023/05/21 14:00:56;;;;;;;4.37;2.83;;;;;;;37.29;23.16;100221.81;5547452;32;33571;-70
2023/05/21 14:04:03;;;;;;;9.95;3.25;;;;;;;39.36;21.21;100220.47;5547106;32;34507;-71
2023/05/21 14:07:07;;;;;;;7.53;3.03;;;;;;;40.72;19.62;100220.63;5547540;32;34477;-69
2023/05/21 14:10:12;;;;;;;8.88;3.10;;;;;;;41.57;19.65;100227.44;5547662;32;34067;-71
2023/05/21 14:13:17;;;;;;;7.72;3.30;;;;;;;39.89;20.58;100233.44;5536798;32;33584;-71
2023/05/21 14:16:26;;;;;;;3.85;2.85;;;;;;;38.40;21.59;100225.66;5531434;32;34165;-70
2023/05/21 14:19:31;;;;;;;3.87;2.90;;;;;;;35.89;23.96;100219.53;5532210;32;33882;-70
2023/05/21 14:22:34;;;;;;;4.12;3.12;;;;;;;33.86;26.20;100215.28;5528795;32;35316;-69
2023/05/21 14:25:38;;;;;;;6.85;3.20;;;;;;;32.74;27.31;100209.69;5531949;32;34082;-70